sensor_id;sensor_type;location;lat;lon;timestamp;temperature;humidity
64833;HTU21D;51290;45.060;38.948;2024-03-25T00:00:12;7.54;75.31
64833;HTU21D;51290;45.060;38.948;2024-03-25T00:02:39;7.52;75.34
64833;HTU21D;51290;45.060;38.948;2024-03-25T00:05:06;7.50;75.44
64833;HTU21D;51290;45.060;38.948;2024-03-25T00:07:36;7.49;75.50
64833;HTU21D;51290;45.060;38.948;2024-03-25T00:10:03;7.49;75.38
64833;HTU21D;51290;45.060;38.948;2024-03-25T00:12:30;7.47;75.23
64833;HTU21D;51290;45.060;38.948;2024-03-25T00:14:55;7.42;75.17
64833;HTU21D;51290;45.060;38.948;2024-03-25T00:17:21;7.38;75.14
64833;HTU21D;51290;45.060;38.948;2024-03-25T00:19:47;7.34;75.15
64833;HTU21D;51290;45.060;38.948;2024-03-25T00:22:20;7.30;75.18
64833;HTU21D;51290;45.060;38.948;2024-03-25T00:24:46;7.29;75.31
64833;HTU21D;51290;45.060;38.948;2024-03-25T00:27:13;7.29;75.45
64833;HTU21D;51290;45.060;38.948;2024-03-25T00:29:39;7.28;75.42
64833;HTU21D;51290;45.060;38.948;2024-03-25T00:32:06;7.26;75.46
64833;HTU21D;51290;45.060;38.948;2024-03-25T00:34:32;7.26;75.50
64833;HTU21D;51290;45.060;38.948;2024-03-25T00:36:59;7.24;75.48
64833;HTU21D;51290;45.060;38.948;2024-03-25T00:39:25;7.20;75.55
64833;HTU21D;51290;45.060;38.948;2024-03-25T00:41:52;7.19;75.68
64833;HTU21D;51290;45.060;38.948;2024-03-25T00:44:18;7.18;75.72
64833;HTU21D;51290;45.060;38.948;2024-03-25T00:46:44;7.15;75.68
64833;HTU21D;51290;45.060;38.948;2024-03-25T00:49:10;7.14;75.73
64833;HTU21D;51290;45.060;38.948;2024-03-25T00:51:37;7.12;75.79
64833;HTU21D;51290;45.060;38.948;2024-03-25T00:54:03;7.12;76.00
64833;HTU21D;51290;45.060;38.948;2024-03-25T00:56:30;7.13;76.16
64833;HTU21D;51290;45.060;38.948;2024-03-25T00:58:56;7.13;76.26
64833;HTU21D;51290;45.060;38.948;2024-03-25T01:01:24;7.13;76.37
64833;HTU21D;51290;45.060;38.948;2024-03-25T01:03:50;7.12;76.41
64833;HTU21D;51290;45.060;38.948;2024-03-25T01:06:16;7.09;76.44
64833;HTU21D;51290;45.060;38.948;2024-03-25T01:08:42;7.07;76.44
64833;HTU21D;51290;45.060;38.948;2024-03-25T01:11:07;7.05;76.59
64833;HTU21D;51290;45.060;38.948;2024-03-25T01:13:33;7.05;76.72
64833;HTU21D;51290;45.060;38.948;2024-03-25T01:15:59;7.07;76.81
64833;HTU21D;51290;45.060;38.948;2024-03-25T01:18:25;7.07;76.82
64833;HTU21D;51290;45.060;38.948;2024-03-25T01:20:51;7.07;76.83
64833;HTU21D;51290;45.060;38.948;2024-03-25T01:23:17;7.05;76.81
64833;HTU21D;51290;45.060;38.948;2024-03-25T01:25:43;7.04;76.92
64833;HTU21D;51290;45.060;38.948;2024-03-25T01:28:09;7.04;77.01
64833;HTU21D;51290;45.060;38.948;2024-03-25T01:30:35;7.04;77.16
64833;HTU21D;51290;45.060;38.948;2024-03-25T01:33:04;7.04;77.35
64833;HTU21D;51290;45.060;38.948;2024-03-25T01:35:31;7.05;77.46
64833;HTU21D;51290;45.060;38.948;2024-03-25T01:37:57;7.07;77.44
64833;HTU21D;51290;45.060;38.948;2024-03-25T01:40:24;7.04;77.54
64833;HTU21D;51290;45.060;38.948;2024-03-25T01:42:59;7.07;77.75
64833;HTU21D;51290;45.060;38.948;2024-03-25T01:45:29;7.07;77.73
64833;HTU21D;51290;45.060;38.948;2024-03-25T01:47:56;7.03;77.66
64833;HTU21D;51290;45.060;38.948;2024-03-25T01:50:22;7.02;77.73
64833;HTU21D;51290;45.060;38.948;2024-03-25T01:52:49;7.01;77.72
64833;HTU21D;51290;45.060;38.948;2024-03-25T01:55:18;6.99;77.77
64833;HTU21D;51290;45.060;38.948;2024-03-25T01:57:46;6.97;77.78
64833;HTU21D;51290;45.060;38.948;2024-03-25T02:00:13;6.96;77.85
64833;HTU21D;51290;45.060;38.948;2024-03-25T02:02:49;6.94;77.89
64833;HTU21D;51290;45.060;38.948;2024-03-25T02:05:17;6.91;77.92
64833;HTU21D;51290;45.060;38.948;2024-03-25T02:07:44;6.90;77.92
64833;HTU21D;51290;45.060;38.948;2024-03-25T02:10:11;6.86;77.92
64833;HTU21D;51290;45.060;38.948;2024-03-25T02:12:41;6.84;77.84
64833;HTU21D;51290;45.060;38.948;2024-03-25T02:15:08;6.82;77.79
64833;HTU21D;51290;45.060;38.948;2024-03-25T02:17:35;6.76;77.72
64833;HTU21D;51290;45.060;38.948;2024-03-25T02:20:02;6.73;77.64
64833;HTU21D;51290;45.060;38.948;2024-03-25T02:22:34;6.68;77.62
64833;HTU21D;51290;45.060;38.948;2024-03-25T02:25:05;6.63;77.60
64833;HTU21D;51290;45.060;38.948;2024-03-25T02:27:33;6.59;77.61
64833;HTU21D;51290;45.060;38.948;2024-03-25T02:30:09;6.56;77.62
64833;HTU21D;51290;45.060;38.948;2024-03-25T02:32:40;6.52;77.64
64833;HTU21D;51290;45.060;38.948;2024-03-25T02:35:09;6.50;77.76
64833;HTU21D;51290;45.060;38.948;2024-03-25T02:37:39;6.49;77.85
64833;HTU21D;51290;45.060;38.948;2024-03-25T02:40:07;6.50;77.98
64833;HTU21D;51290;45.060;38.948;2024-03-25T02:42:37;6.50;77.92
64833;HTU21D;51290;45.060;38.948;2024-03-25T02:45:06;6.50;77.85
64833;HTU21D;51290;45.060;38.948;2024-03-25T02:47:32;6.49;77.80
64833;HTU21D;51290;45.060;38.948;2024-03-25T02:49:59;6.46;77.77
64833;HTU21D;51290;45.060;38.948;2024-03-25T02:52:25;6.43;77.70
64833;HTU21D;51290;45.060;38.948;2024-03-25T02:54:51;6.39;77.56
64833;HTU21D;51290;45.060;38.948;2024-03-25T02:57:17;6.33;77.38
64833;HTU21D;51290;45.060;38.948;2024-03-25T02:59:43;6.25;77.26
64833;HTU21D;51290;45.060;38.948;2024-03-25T03:02:09;6.17;77.13
64833;HTU21D;51290;45.060;38.948;2024-03-25T03:04:35;6.06;77.02
64833;HTU21D;51290;45.060;38.948;2024-03-25T03:07:01;5.96;76.96
64833;HTU21D;51290;45.060;38.948;2024-03-25T03:09:27;5.85;76.95
64833;HTU21D;51290;45.060;38.948;2024-03-25T03:11:53;5.75;76.93
64833;HTU21D;51290;45.060;38.948;2024-03-25T03:14:19;5.63;76.95
64833;HTU21D;51290;45.060;38.948;2024-03-25T03:16:45;5.53;77.02
64833;HTU21D;51290;45.060;38.948;2024-03-25T03:19:11;5.46;77.09
64833;HTU21D;51290;45.060;38.948;2024-03-25T03:21:36;5.37;77.18
64833;HTU21D;51290;45.060;38.948;2024-03-25T03:24:04;5.30;77.27
64833;HTU21D;51290;45.060;38.948;2024-03-25T03:26:30;5.24;77.40
64833;HTU21D;51290;45.060;38.948;2024-03-25T03:28:58;5.22;77.53
64833;HTU21D;51290;45.060;38.948;2024-03-25T03:31:26;5.19;77.64
64833;HTU21D;51290;45.060;38.948;2024-03-25T03:33:52;5.18;77.72
64833;HTU21D;51290;45.060;38.948;2024-03-25T03:36:19;5.18;77.78
64833;HTU21D;51290;45.060;38.948;2024-03-25T03:38:46;5.19;77.84
64833;HTU21D;51290;45.060;38.948;2024-03-25T03:41:12;5.21;77.91
64833;HTU21D;51290;45.060;38.948;2024-03-25T03:43:38;5.23;77.99
64833;HTU21D;51290;45.060;38.948;2024-03-25T03:46:04;5.30;78.34
64833;HTU21D;51290;45.060;38.948;2024-03-25T03:48:30;5.42;78.63
64833;HTU21D;51290;45.060;38.948;2024-03-25T03:50:56;5.56;78.96
64833;HTU21D;51290;45.060;38.948;2024-03-25T03:53:23;5.71;79.25
64833;HTU21D;51290;45.060;38.948;2024-03-25T03:55:59;5.87;79.69
64833;HTU21D;51290;45.060;38.948;2024-03-25T03:58:25;5.99;79.79
64833;HTU21D;51290;45.060;38.948;2024-03-25T04:00:52;6.09;80.02
64833;HTU21D;51290;45.060;38.948;2024-03-25T04:03:18;6.17;80.14
64833;HTU21D;51290;45.060;38.948;2024-03-25T04:05:45;6.26;80.39
64833;HTU21D;51290;45.060;38.948;2024-03-25T04:08:11;6.33;80.49
64833;HTU21D;51290;45.060;38.948;2024-03-25T04:10:37;6.40;80.51
64833;HTU21D;51290;45.060;38.948;2024-03-25T04:13:04;6.44;80.54
64833;HTU21D;51290;45.060;38.948;2024-03-25T04:15:34;6.51;80.46
64833;HTU21D;51290;45.060;38.948;2024-03-25T04:18:01;6.55;80.38
64833;HTU21D;51290;45.060;38.948;2024-03-25T04:20:28;6.60;80.33
64833;HTU21D;51290;45.060;38.948;2024-03-25T04:22:56;6.66;80.30
64833;HTU21D;51290;45.060;38.948;2024-03-25T04:25:23;6.72;80.26
64833;HTU21D;51290;45.060;38.948;2024-03-25T04:27:49;6.79;80.24
64833;HTU21D;51290;45.060;38.948;2024-03-25T04:30:15;6.85;80.17
64833;HTU21D;51290;45.060;38.948;2024-03-25T04:32:41;6.94;80.12
64833;HTU21D;51290;45.060;38.948;2024-03-25T04:35:07;7.01;80.01
64833;HTU21D;51290;45.060;38.948;2024-03-25T04:37:34;7.08;79.95
64833;HTU21D;51290;45.060;38.948;2024-03-25T04:40:01;7.15;79.86
64833;HTU21D;51290;45.060;38.948;2024-03-25T04:42:27;7.23;79.76
64833;HTU21D;51290;45.060;38.948;2024-03-25T04:44:53;7.31;79.67
64833;HTU21D;51290;45.060;38.948;2024-03-25T04:47:20;7.39;79.59
64833;HTU21D;51290;45.060;38.948;2024-03-25T04:49:46;7.47;79.40
64833;HTU21D;51290;45.060;38.948;2024-03-25T04:52:12;7.55;79.26
64833;HTU21D;51290;45.060;38.948;2024-03-25T04:54:39;7.61;79.08
64833;HTU21D;51290;45.060;38.948;2024-03-25T04:57:05;7.65;78.83
64833;HTU21D;51290;45.060;38.948;2024-03-25T04:59:33;7.69;78.60
64833;HTU21D;51290;45.060;38.948;2024-03-25T05:02:00;7.73;78.45
64833;HTU21D;51290;45.060;38.948;2024-03-25T05:04:26;7.79;78.40
64833;HTU21D;51290;45.060;38.948;2024-03-25T05:06:52;7.85;78.35
64833;HTU21D;51290;45.060;38.948;2024-03-25T05:09:18;7.93;78.34
64833;HTU21D;51290;45.060;38.948;2024-03-25T05:11:44;8.03;78.12
64833;HTU21D;51290;45.060;38.948;2024-03-25T05:14:10;8.14;77.95
64833;HTU21D;51290;45.060;38.948;2024-03-25T05:16:36;8.23;77.70
64833;HTU21D;51290;45.060;38.948;2024-03-25T05:19:05;8.32;77.44
64833;HTU21D;51290;45.060;38.948;2024-03-25T05:21:31;8.41;77.30
64833;HTU21D;51290;45.060;38.948;2024-03-25T05:23:58;8.47;77.08
64833;HTU21D;51290;45.060;38.948;2024-03-25T05:26:24;8.56;76.76
64833;HTU21D;51290;45.060;38.948;2024-03-25T05:28:54;8.62;76.44
64833;HTU21D;51290;45.060;38.948;2024-03-25T05:31:21;8.68;76.21
64833;HTU21D;51290;45.060;38.948;2024-03-25T05:33:47;8.76;76.01
64833;HTU21D;51290;45.060;38.948;2024-03-25T05:36:13;8.83;75.62
64833;HTU21D;51290;45.060;38.948;2024-03-25T05:38:40;8.88;75.09
64833;HTU21D;51290;45.060;38.948;2024-03-25T05:41:07;8.94;74.72
64833;HTU21D;51290;45.060;38.948;2024-03-25T05:43:33;9.01;74.60
64833;HTU21D;51290;45.060;38.948;2024-03-25T05:45:59;9.09;74.44
64833;HTU21D;51290;45.060;38.948;2024-03-25T05:48:25;9.16;74.10
64833;HTU21D;51290;45.060;38.948;2024-03-25T05:50:58;9.19;73.61
64833;HTU21D;51290;45.060;38.948;2024-03-25T05:53:26;9.22;73.45
64833;HTU21D;51290;45.060;38.948;2024-03-25T05:55:52;9.25;73.35
64833;HTU21D;51290;45.060;38.948;2024-03-25T05:58:18;9.31;73.38
64833;HTU21D;51290;45.060;38.948;2024-03-25T06:00:47;9.36;73.22
64833;HTU21D;51290;45.060;38.948;2024-03-25T06:03:13;9.39;73.11
64833;HTU21D;51290;45.060;38.948;2024-03-25T06:05:39;9.45;72.96
64833;HTU21D;51290;45.060;38.948;2024-03-25T06:08:06;9.53;72.82
64833;HTU21D;51290;45.060;38.948;2024-03-25T06:10:37;9.59;72.61
64833;HTU21D;51290;45.060;38.948;2024-03-25T06:13:03;9.66;72.34
64833;HTU21D;51290;45.060;38.948;2024-03-25T06:15:29;9.74;72.22
64833;HTU21D;51290;45.060;38.948;2024-03-25T06:17:55;9.81;71.89
64833;HTU21D;51290;45.060;38.948;2024-03-25T06:20:21;9.85;71.31
64833;HTU21D;51290;45.060;38.948;2024-03-25T06:22:47;9.91;71.26
64833;HTU21D;51290;45.060;38.948;2024-03-25T06:25:13;9.97;71.20
64833;HTU21D;51290;45.060;38.948;2024-03-25T06:27:39;10.04;70.61
64833;HTU21D;51290;45.060;38.948;2024-03-25T06:30:06;10.12;70.37
64833;HTU21D;51290;45.060;38.948;2024-03-25T06:32:58;10.21;70.43
64833;HTU21D;51290;45.060;38.948;2024-03-25T06:35:43;10.33;70.30
64833;HTU21D;51290;45.060;38.948;2024-03-25T06:38:12;10.42;70.22
64833;HTU21D;51290;45.060;38.948;2024-03-25T06:40:38;10.52;69.83
64833;HTU21D;51290;45.060;38.948;2024-03-25T06:43:04;10.60;69.05
64833;HTU21D;51290;45.060;38.948;2024-03-25T06:45:31;10.67;68.79
64833;HTU21D;51290;45.060;38.948;2024-03-25T06:47:57;10.74;68.75
64833;HTU21D;51290;45.060;38.948;2024-03-25T06:50:24;10.85;68.42
64833;HTU21D;51290;45.060;38.948;2024-03-25T06:52:50;10.95;68.01
64833;HTU21D;51290;45.060;38.948;2024-03-25T06:55:16;11.02;67.82
64833;HTU21D;51290;45.060;38.948;2024-03-25T06:57:43;11.09;67.66
64833;HTU21D;51290;45.060;38.948;2024-03-25T07:00:09;11.16;67.51
64833;HTU21D;51290;45.060;38.948;2024-03-25T07:02:39;11.27;67.45
64833;HTU21D;51290;45.060;38.948;2024-03-25T07:05:06;11.37;67.52
64833;HTU21D;51290;45.060;38.948;2024-03-25T07:07:32;11.49;67.14
64833;HTU21D;51290;45.060;38.948;2024-03-25T07:09:59;11.58;66.79
64833;HTU21D;51290;45.060;38.948;2024-03-25T07:12:25;11.66;65.98
64833;HTU21D;51290;45.060;38.948;2024-03-25T07:14:52;11.70;65.79
64833;HTU21D;51290;45.060;38.948;2024-03-25T07:17:18;11.74;65.75
64833;HTU21D;51290;45.060;38.948;2024-03-25T07:19:44;11.83;65.77
64833;HTU21D;51290;45.060;38.948;2024-03-25T07:22:10;11.91;65.66
64833;HTU21D;51290;45.060;38.948;2024-03-25T07:24:36;12.00;65.27
64833;HTU21D;51290;45.060;38.948;2024-03-25T07:27:03;12.11;64.36
64833;HTU21D;51290;45.060;38.948;2024-03-25T07:29:29;12.16;63.98
64833;HTU21D;51290;45.060;38.948;2024-03-25T07:31:55;12.20;63.69
64833;HTU21D;51290;45.060;38.948;2024-03-25T07:34:21;12.25;63.48
64833;HTU21D;51290;45.060;38.948;2024-03-25T07:36:47;12.28;63.40
64833;HTU21D;51290;45.060;38.948;2024-03-25T07:39:14;12.30;63.34
64833;HTU21D;51290;45.060;38.948;2024-03-25T07:41:40;12.33;62.78
64833;HTU21D;51290;45.060;38.948;2024-03-25T07:44:06;12.36;62.89
64833;HTU21D;51290;45.060;38.948;2024-03-25T07:46:32;12.41;62.60
64833;HTU21D;51290;45.060;38.948;2024-03-25T07:48:58;12.43;61.86
64833;HTU21D;51290;45.060;38.948;2024-03-25T07:51:24;12.46;61.70
64833;HTU21D;51290;45.060;38.948;2024-03-25T07:53:50;12.49;61.54
64833;HTU21D;51290;45.060;38.948;2024-03-25T07:56:16;12.55;61.32
64833;HTU21D;51290;45.060;38.948;2024-03-25T07:58:42;12.62;61.20
64833;HTU21D;51290;45.060;38.948;2024-03-25T08:01:08;12.67;60.94
64833;HTU21D;51290;45.060;38.948;2024-03-25T08:03:34;12.72;60.00
64833;HTU21D;51290;45.060;38.948;2024-03-25T08:06:00;12.74;59.33
64833;HTU21D;51290;45.060;38.948;2024-03-25T08:08:26;12.74;58.81
64833;HTU21D;51290;45.060;38.948;2024-03-25T08:10:53;12.75;58.29
64833;HTU21D;51290;45.060;38.948;2024-03-25T08:13:19;12.75;58.11
64833;HTU21D;51290;45.060;38.948;2024-03-25T08:15:48;12.79;58.52
64833;HTU21D;51290;45.060;38.948;2024-03-25T08:18:17;12.84;58.46
64833;HTU21D;51290;45.060;38.948;2024-03-25T08:20:43;12.89;58.47
64833;HTU21D;51290;45.060;38.948;2024-03-25T08:23:08;12.94;58.03
64833;HTU21D;51290;45.060;38.948;2024-03-25T08:25:34;12.97;57.85
64833;HTU21D;51290;45.060;38.948;2024-03-25T08:28:00;13.01;57.84
64833;HTU21D;51290;45.060;38.948;2024-03-25T08:30:26;13.03;57.89
64833;HTU21D;51290;45.060;38.948;2024-03-25T08:32:52;13.05;57.44
64833;HTU21D;51290;45.060;38.948;2024-03-25T08:35:18;13.05;57.39
64833;HTU21D;51290;45.060;38.948;2024-03-25T08:37:44;13.09;57.52
64833;HTU21D;51290;45.060;38.948;2024-03-25T08:40:10;13.15;56.79
64833;HTU21D;51290;45.060;38.948;2024-03-25T08:42:36;13.18;56.43
64833;HTU21D;51290;45.060;38.948;2024-03-25T08:45:02;13.19;56.42
64833;HTU21D;51290;45.060;38.948;2024-03-25T08:47:28;13.18;55.74
64833;HTU21D;51290;45.060;38.948;2024-03-25T08:49:54;13.20;55.70
64833;HTU21D;51290;45.060;38.948;2024-03-25T08:52:20;13.24;55.71
64833;HTU21D;51290;45.060;38.948;2024-03-25T08:54:46;13.29;55.67
64833;HTU21D;51290;45.060;38.948;2024-03-25T08:57:12;13.32;55.86
64833;HTU21D;51290;45.060;38.948;2024-03-25T08:59:38;13.36;56.24
64833;HTU21D;51290;45.060;38.948;2024-03-25T09:02:04;13.43;56.26
64833;HTU21D;51290;45.060;38.948;2024-03-25T09:04:30;13.52;55.69
64833;HTU21D;51290;45.060;38.948;2024-03-25T09:06:56;13.58;55.49
64833;HTU21D;51290;45.060;38.948;2024-03-25T09:09:22;13.64;55.36
64833;HTU21D;51290;45.060;38.948;2024-03-25T09:12:06;13.71;55.66
64833;HTU21D;51290;45.060;38.948;2024-03-25T09:14:32;13.78;55.35
64833;HTU21D;51290;45.060;38.948;2024-03-25T09:16:59;13.80;55.10
64833;HTU21D;51290;45.060;38.948;2024-03-25T09:19:25;13.85;55.02
64833;HTU21D;51290;45.060;38.948;2024-03-25T09:21:51;13.90;54.38
64833;HTU21D;51290;45.060;38.948;2024-03-25T09:24:17;13.93;53.75
64833;HTU21D;51290;45.060;38.948;2024-03-25T09:26:44;14.00;52.36
64833;HTU21D;51290;45.060;38.948;2024-03-25T09:29:11;14.05;52.14
64833;HTU21D;51290;45.060;38.948;2024-03-25T09:31:38;14.11;51.63
64833;HTU21D;51290;45.060;38.948;2024-03-25T09:34:05;14.15;52.01
64833;HTU21D;51290;45.060;38.948;2024-03-25T09:36:31;14.23;50.86
64833;HTU21D;51290;45.060;38.948;2024-03-25T09:38:57;14.33;50.21
64833;HTU21D;51290;45.060;38.948;2024-03-25T09:41:23;14.42;49.89
64833;HTU21D;51290;45.060;38.948;2024-03-25T09:43:56;14.51;48.76
64833;HTU21D;51290;45.060;38.948;2024-03-25T09:46:23;14.55;47.81
64833;HTU21D;51290;45.060;38.948;2024-03-25T09:48:54;14.62;46.94
64833;HTU21D;51290;45.060;38.948;2024-03-25T09:51:20;14.66;47.33
64833;HTU21D;51290;45.060;38.948;2024-03-25T09:53:47;14.71;46.63
64833;HTU21D;51290;45.060;38.948;2024-03-25T09:56:13;14.74;47.09
64833;HTU21D;51290;45.060;38.948;2024-03-25T09:58:40;14.81;46.31
64833;HTU21D;51290;45.060;38.948;2024-03-25T10:01:06;14.86;46.36
64833;HTU21D;51290;45.060;38.948;2024-03-25T10:03:32;14.93;46.16
64833;HTU21D;51290;45.060;38.948;2024-03-25T10:05:58;14.97;45.02
64833;HTU21D;51290;45.060;38.948;2024-03-25T10:08:24;15.01;44.12
64833;HTU21D;51290;45.060;38.948;2024-03-25T10:10:52;15.08;43.37
64833;HTU21D;51290;45.060;38.948;2024-03-25T10:13:21;15.12;43.46
64833;HTU21D;51290;45.060;38.948;2024-03-25T10:15:48;15.14;43.01
64833;HTU21D;51290;45.060;38.948;2024-03-25T10:18:14;15.17;42.41
64833;HTU21D;51290;45.060;38.948;2024-03-25T10:20:50;15.18;41.34
64833;HTU21D;51290;45.060;38.948;2024-03-25T10:23:20;15.21;41.15
64833;HTU21D;51290;45.060;38.948;2024-03-25T10:25:48;15.26;41.49
64833;HTU21D;51290;45.060;38.948;2024-03-25T10:28:14;15.27;40.74
64833;HTU21D;51290;45.060;38.948;2024-03-25T10:30:41;15.31;40.04
64833;HTU21D;51290;45.060;38.948;2024-03-25T10:33:08;15.33;40.92
64833;HTU21D;51290;45.060;38.948;2024-03-25T10:35:35;15.37;41.24
64833;HTU21D;51290;45.060;38.948;2024-03-25T10:38:04;15.42;40.94
64833;HTU21D;51290;45.060;38.948;2024-03-25T10:40:32;15.48;40.13
64833;HTU21D;51290;45.060;38.948;2024-03-25T10:43:05;15.52;38.69
64833;HTU21D;51290;45.060;38.948;2024-03-25T10:45:42;15.52;38.24
64833;HTU21D;51290;45.060;38.948;2024-03-25T10:48:15;15.52;38.60
64833;HTU21D;51290;45.060;38.948;2024-03-25T10:50:43;15.54;38.92
64833;HTU21D;51290;45.060;38.948;2024-03-25T10:53:11;15.55;38.27
64833;HTU21D;51290;45.060;38.948;2024-03-25T10:55:37;15.60;37.03
64833;HTU21D;51290;45.060;38.948;2024-03-25T10:58:04;15.63;37.17
64833;HTU21D;51290;45.060;38.948;2024-03-25T11:00:32;15.66;37.23
64833;HTU21D;51290;45.060;38.948;2024-03-25T11:02:59;15.67;37.78
64833;HTU21D;51290;45.060;38.948;2024-03-25T11:05:26;15.69;37.08
64833;HTU21D;51290;45.060;38.948;2024-03-25T11:07:52;15.69;37.02
64833;HTU21D;51290;45.060;38.948;2024-03-25T11:10:18;15.72;36.24
64833;HTU21D;51290;45.060;38.948;2024-03-25T11:12:44;15.76;36.56
64833;HTU21D;51290;45.060;38.948;2024-03-25T11:15:11;15.80;36.37
64833;HTU21D;51290;45.060;38.948;2024-03-25T11:17:48;15.82;36.13
64833;HTU21D;51290;45.060;38.948;2024-03-25T11:20:15;15.87;36.26
64833;HTU21D;51290;45.060;38.948;2024-03-25T11:22:52;15.91;36.95
64833;HTU21D;51290;45.060;38.948;2024-03-25T11:25:20;15.95;36.52
64833;HTU21D;51290;45.060;38.948;2024-03-25T11:27:46;15.99;36.70
64833;HTU21D;51290;45.060;38.948;2024-03-25T11:30:14;16.01;36.01
64833;HTU21D;51290;45.060;38.948;2024-03-25T11:32:45;16.05;35.99
64833;HTU21D;51290;45.060;38.948;2024-03-25T11:35:11;16.10;35.04
64833;HTU21D;51290;45.060;38.948;2024-03-25T11:37:41;16.10;35.37
64833;HTU21D;51290;45.060;38.948;2024-03-25T11:40:08;16.08;35.43
64833;HTU21D;51290;45.060;38.948;2024-03-25T11:42:38;16.10;36.14
64833;HTU21D;51290;45.060;38.948;2024-03-25T11:45:06;16.10;36.11
64833;HTU21D;51290;45.060;38.948;2024-03-25T11:47:33;16.07;36.68
64833;HTU21D;51290;45.060;38.948;2024-03-25T11:49:59;16.05;37.20
64833;HTU21D;51290;45.060;38.948;2024-03-25T11:52:31;16.04;36.74
64833;HTU21D;51290;45.060;38.948;2024-03-25T11:54:57;16.06;36.17
64833;HTU21D;51290;45.060;38.948;2024-03-25T11:57:23;16.07;35.26
64833;HTU21D;51290;45.060;38.948;2024-03-25T11:59:49;16.11;35.50
64833;HTU21D;51290;45.060;38.948;2024-03-25T12:02:16;16.12;36.25
64833;HTU21D;51290;45.060;38.948;2024-03-25T12:04:43;16.11;36.57
64833;HTU21D;51290;45.060;38.948;2024-03-25T12:07:18;16.10;36.79
64833;HTU21D;51290;45.060;38.948;2024-03-25T12:09:44;16.06;36.85
64833;HTU21D;51290;45.060;38.948;2024-03-25T12:12:28;16.06;36.95
64833;HTU21D;51290;45.060;38.948;2024-03-25T12:14:55;16.05;37.12
64833;HTU21D;51290;45.060;38.948;2024-03-25T12:17:26;16.07;37.33
64833;HTU21D;51290;45.060;38.948;2024-03-25T12:20:13;16.08;37.85
64833;HTU21D;51290;45.060;38.948;2024-03-25T12:22:41;16.10;37.69
64833;HTU21D;51290;45.060;38.948;2024-03-25T12:25:08;16.12;37.77
64833;HTU21D;51290;45.060;38.948;2024-03-25T12:27:36;16.12;37.17
64833;HTU21D;51290;45.060;38.948;2024-03-25T12:30:07;16.15;36.92
64833;HTU21D;51290;45.060;38.948;2024-03-25T12:32:37;16.18;36.82
64833;HTU21D;51290;45.060;38.948;2024-03-25T12:35:07;16.21;37.01
64833;HTU21D;51290;45.060;38.948;2024-03-25T12:37:33;16.24;37.27
64833;HTU21D;51290;45.060;38.948;2024-03-25T12:39:59;16.28;37.53
64833;HTU21D;51290;45.060;38.948;2024-03-25T12:42:26;16.33;36.65
64833;HTU21D;51290;45.060;38.948;2024-03-25T12:44:55;16.37;36.69
64833;HTU21D;51290;45.060;38.948;2024-03-25T12:47:21;16.42;36.94
64833;HTU21D;51290;45.060;38.948;2024-03-25T12:49:47;16.45;37.20
64833;HTU21D;51290;45.060;38.948;2024-03-25T12:52:13;16.50;37.52
64833;HTU21D;51290;45.060;38.948;2024-03-25T12:54:40;16.54;37.66
64833;HTU21D;51290;45.060;38.948;2024-03-25T12:57:08;16.56;37.35
64833;HTU21D;51290;45.060;38.948;2024-03-25T12:59:34;16.60;36.50
64833;HTU21D;51290;45.060;38.948;2024-03-25T13:02:01;16.62;36.63
64833;HTU21D;51290;45.060;38.948;2024-03-25T13:04:28;16.65;36.54
64833;HTU21D;51290;45.060;38.948;2024-03-25T13:06:54;16.66;36.34
64833;HTU21D;51290;45.060;38.948;2024-03-25T13:09:20;16.67;36.62
64833;HTU21D;51290;45.060;38.948;2024-03-25T13:11:47;16.71;36.92
64833;HTU21D;51290;45.060;38.948;2024-03-25T13:14:13;16.76;37.08
64833;HTU21D;51290;45.060;38.948;2024-03-25T13:16:42;16.82;36.73
64833;HTU21D;51290;45.060;38.948;2024-03-25T13:19:08;16.86;36.15
64833;HTU21D;51290;45.060;38.948;2024-03-25T13:21:34;16.89;36.43
64833;HTU21D;51290;45.060;38.948;2024-03-25T13:24:00;16.88;36.56
64833;HTU21D;51290;45.060;38.948;2024-03-25T13:26:26;16.85;36.73
64833;HTU21D;51290;45.060;38.948;2024-03-25T13:28:53;16.79;36.86
64833;HTU21D;51290;45.060;38.948;2024-03-25T13:31:19;16.76;37.10
64833;HTU21D;51290;45.060;38.948;2024-03-25T13:33:45;16.73;37.05
64833;HTU21D;51290;45.060;38.948;2024-03-25T13:36:11;16.72;36.63
64833;HTU21D;51290;45.060;38.948;2024-03-25T13:38:37;16.70;36.41
64833;HTU21D;51290;45.060;38.948;2024-03-25T13:41:04;16.66;36.15
64833;HTU21D;51290;45.060;38.948;2024-03-25T13:43:31;16.64;36.13
64833;HTU21D;51290;45.060;38.948;2024-03-25T13:45:58;16.60;36.31
64833;HTU21D;51290;45.060;38.948;2024-03-25T13:48:24;16.56;36.73
64833;HTU21D;51290;45.060;38.948;2024-03-25T13:50:53;16.52;36.60
64833;HTU21D;51290;45.060;38.948;2024-03-25T13:53:19;16.49;36.46
64833;HTU21D;51290;45.060;38.948;2024-03-25T13:55:45;16.44;36.45
64833;HTU21D;51290;45.060;38.948;2024-03-25T13:58:11;16.39;36.56
64833;HTU21D;51290;45.060;38.948;2024-03-25T14:00:37;16.31;36.79
64833;HTU21D;51290;45.060;38.948;2024-03-25T14:03:04;16.25;36.76
64833;HTU21D;51290;45.060;38.948;2024-03-25T14:05:30;16.19;36.50
64833;HTU21D;51290;45.060;38.948;2024-03-25T14:07:56;16.15;36.59
64833;HTU21D;51290;45.060;38.948;2024-03-25T14:10:22;16.15;36.53
64833;HTU21D;51290;45.060;38.948;2024-03-25T14:12:48;16.17;36.37
64833;HTU21D;51290;45.060;38.948;2024-03-25T14:15:14;16.17;36.43
64833;HTU21D;51290;45.060;38.948;2024-03-25T14:17:41;16.16;36.59
64833;HTU21D;51290;45.060;38.948;2024-03-25T14:20:07;16.14;36.92
64833;HTU21D;51290;45.060;38.948;2024-03-25T14:22:34;16.10;37.06
64833;HTU21D;51290;45.060;38.948;2024-03-25T14:25:00;16.03;37.01
64833;HTU21D;51290;45.060;38.948;2024-03-25T14:27:26;16.01;36.95
64833;HTU21D;51290;45.060;38.948;2024-03-25T14:29:52;16.00;36.78
64833;HTU21D;51290;45.060;38.948;2024-03-25T14:32:19;15.99;36.88
64833;HTU21D;51290;45.060;38.948;2024-03-25T14:34:46;15.96;36.60
64833;HTU21D;51290;45.060;38.948;2024-03-25T14:37:13;15.92;36.87
64833;HTU21D;51290;45.060;38.948;2024-03-25T14:39:39;15.89;36.91
64833;HTU21D;51290;45.060;38.948;2024-03-25T14:42:07;15.85;36.97
64833;HTU21D;51290;45.060;38.948;2024-03-25T14:44:33;15.81;37.21
64833;HTU21D;51290;45.060;38.948;2024-03-25T14:46:59;15.75;37.38
64833;HTU21D;51290;45.060;38.948;2024-03-25T14:49:25;15.70;37.55
64833;HTU21D;51290;45.060;38.948;2024-03-25T14:51:52;15.65;37.46
64833;HTU21D;51290;45.060;38.948;2024-03-25T14:54:18;15.62;37.48
64833;HTU21D;51290;45.060;38.948;2024-03-25T14:56:45;15.60;37.50
64833;HTU21D;51290;45.060;38.948;2024-03-25T14:59:11;15.55;37.50
64833;HTU21D;51290;45.060;38.948;2024-03-25T15:01:37;15.49;37.77
64833;HTU21D;51290;45.060;38.948;2024-03-25T15:04:04;15.41;37.96
64833;HTU21D;51290;45.060;38.948;2024-03-25T15:06:30;15.32;38.20